sensor_id;sensor_type;location;lat;lon;timestamp;P1;durP1;ratioP1;P2;durP2;ratioP2
66633;SDS011;53546;52.184;5.596;2022-11-10T00:00:27;8.75;;;1.98;;
66633;SDS011;53546;52.184;5.596;2022-11-10T00:02:52;9.00;;;2.15;;
66633;SDS011;53546;52.184;5.596;2022-11-10T00:05:18;6.90;;;2.03;;
66633;SDS011;53546;52.184;5.596;2022-11-10T00:07:43;4.30;;;1.85;;
66633;SDS011;53546;52.184;5.596;2022-11-10T00:10:09;5.93;;;1.88;;
66633;SDS011;53546;52.184;5.596;2022-11-10T00:12:34;6.15;;;2.00;;
66633;SDS011;53546;52.184;5.596;2022-11-10T00:15:00;6.57;;;2.20;;
66633;SDS011;53546;52.184;5.596;2022-11-10T00:17:44;4.65;;;1.80;;
66633;SDS011;53546;52.184;5.596;2022-11-10T00:20:10;5.65;;;1.92;;
66633;SDS011;53546;52.184;5.596;2022-11-10T00:22:36;6.03;;;2.47;;
66633;SDS011;53546;52.184;5.596;2022-11-10T00:25:03;7.72;;;1.80;;
66633;SDS011;53546;52.184;5.596;2022-11-10T00:27:28;8.10;;;2.00;;
66633;SDS011;53546;52.184;5.596;2022-11-10T00:29:54;8.50;;;2.20;;
66633;SDS011;53546;52.184;5.596;2022-11-10T00:32:19;8.23;;;2.33;;
66633;SDS011;53546;52.184;5.596;2022-11-10T00:34:45;4.28;;;2.13;;
66633;SDS011;53546;52.184;5.596;2022-11-10T00:37:10;7.90;;;1.85;;
66633;SDS011;53546;52.184;5.596;2022-11-10T00:39:36;10.75;;;1.90;;
66633;SDS011;53546;52.184;5.596;2022-11-10T00:42:01;4.35;;;1.58;;
66633;SDS011;53546;52.184;5.596;2022-11-10T00:44:27;6.85;;;2.08;;
66633;SDS011;53546;52.184;5.596;2022-11-10T00:46:52;8.18;;;1.83;;
66633;SDS011;53546;52.184;5.596;2022-11-10T00:49:18;5.90;;;2.13;;
66633;SDS011;53546;52.184;5.596;2022-11-10T00:51:43;5.40;;;2.22;;
66633;SDS011;53546;52.184;5.596;2022-11-10T00:54:08;7.60;;;2.13;;
66633;SDS011;53546;52.184;5.596;2022-11-10T00:56:34;6.60;;;2.03;;
66633;SDS011;53546;52.184;5.596;2022-11-10T00:58:59;11.15;;;2.00;;
66633;SDS011;53546;52.184;5.596;2022-11-10T01:01:24;6.28;;;2.00;;
66633;SDS011;53546;52.184;5.596;2022-11-10T01:03:51;5.65;;;1.90;;
66633;SDS011;53546;52.184;5.596;2022-11-10T01:06:17;4.82;;;1.73;;
66633;SDS011;53546;52.184;5.596;2022-11-10T01:08:43;5.20;;;1.55;;
66633;SDS011;53546;52.184;5.596;2022-11-10T01:11:13;6.57;;;2.20;;
66633;SDS011;53546;52.184;5.596;2022-11-10T01:13:40;6.70;;;2.25;;
66633;SDS011;53546;52.184;5.596;2022-11-10T01:16:06;7.43;;;1.92;;
66633;SDS011;53546;52.184;5.596;2022-11-10T01:18:36;6.20;;;1.80;;
66633;SDS011;53546;52.184;5.596;2022-11-10T01:21:02;4.82;;;1.70;;
66633;SDS011;53546;52.184;5.596;2022-11-10T01:23:27;6.10;;;1.85;;
66633;SDS011;53546;52.184;5.596;2022-11-10T01:26:00;5.65;;;1.95;;
66633;SDS011;53546;52.184;5.596;2022-11-10T01:28:26;3.47;;;1.80;;
66633;SDS011;53546;52.184;5.596;2022-11-10T01:30:59;6.82;;;2.38;;
66633;SDS011;53546;52.184;5.596;2022-11-10T01:33:25;5.47;;;1.85;;
66633;SDS011;53546;52.184;5.596;2022-11-10T01:35:51;4.32;;;1.90;;
66633;SDS011;53546;52.184;5.596;2022-11-10T01:38:16;6.20;;;1.80;;
66633;SDS011;53546;52.184;5.596;2022-11-10T01:40:42;3.63;;;1.67;;
66633;SDS011;53546;52.184;5.596;2022-11-10T01:43:08;5.72;;;1.83;;
66633;SDS011;53546;52.184;5.596;2022-11-10T01:49:14;8.48;;;2.35;;
66633;SDS011;53546;52.184;5.596;2022-11-10T01:53:44;5.38;;;1.73;;
66633;SDS011;53546;52.184;5.596;2022-11-10T01:56:11;4.82;;;1.77;;
66633;SDS011;53546;52.184;5.596;2022-11-10T01:58:38;7.00;;;2.20;;
66633;SDS011;53546;52.184;5.596;2022-11-10T02:01:07;7.32;;;2.08;;
66633;SDS011;53546;52.184;5.596;2022-11-10T02:03:44;8.57;;;2.35;;
66633;SDS011;53546;52.184;5.596;2022-11-10T02:06:14;4.90;;;2.17;;
66633;SDS011;53546;52.184;5.596;2022-11-10T02:08:41;5.43;;;1.75;;
66633;SDS011;53546;52.184;5.596;2022-11-10T02:11:07;6.30;;;1.80;;
66633;SDS011;53546;52.184;5.596;2022-11-10T02:13:32;5.07;;;1.83;;
66633;SDS011;53546;52.184;5.596;2022-11-10T02:15:57;7.78;;;1.92;;
66633;SDS011;53546;52.184;5.596;2022-11-10T02:18:23;6.47;;;2.10;;
66633;SDS011;53546;52.184;5.596;2022-11-10T02:20:48;7.03;;;2.45;;
66633;SDS011;53546;52.184;5.596;2022-11-10T02:23:41;6.55;;;1.83;;
66633;SDS011;53546;52.184;5.596;2022-11-10T02:25:59;6.68;;;2.00;;
66633;SDS011;53546;52.184;5.596;2022-11-10T02:28:25;6.78;;;2.15;;
66633;SDS011;53546;52.184;5.596;2022-11-10T02:30:51;6.72;;;2.15;;
66633;SDS011;53546;52.184;5.596;2022-11-10T02:33:17;4.32;;;1.80;;
66633;SDS011;53546;52.184;5.596;2022-11-10T02:35:43;7.53;;;1.92;;
66633;SDS011;53546;52.184;5.596;2022-11-10T02:38:09;4.20;;;1.80;;
66633;SDS011;53546;52.184;5.596;2022-11-10T02:40:34;7.05;;;2.00;;
66633;SDS011;53546;52.184;5.596;2022-11-10T02:43:00;4.20;;;2.13;;
66633;SDS011;53546;52.184;5.596;2022-11-10T02:45:26;5.45;;;1.98;;
66633;SDS011;53546;52.184;5.596;2022-11-10T02:47:51;6.65;;;2.05;;
66633;SDS011;53546;52.184;5.596;2022-11-10T02:50:17;5.05;;;1.90;;
66633;SDS011;53546;52.184;5.596;2022-11-10T02:52:42;8.25;;;2.38;;
66633;SDS011;53546;52.184;5.596;2022-11-10T02:55:07;5.90;;;1.90;;
66633;SDS011;53546;52.184;5.596;2022-11-10T02:57:33;5.95;;;1.90;;
66633;SDS011;53546;52.184;5.596;2022-11-10T02:59:58;5.30;;;2.25;;
66633;SDS011;53546;52.184;5.596;2022-11-10T03:02:24;7.57;;;1.80;;
66633;SDS011;53546;52.184;5.596;2022-11-10T03:04:49;6.28;;;2.10;;
66633;SDS011;53546;52.184;5.596;2022-11-10T03:07:14;8.38;;;2.35;;
66633;SDS011;53546;52.184;5.596;2022-11-10T03:09:40;4.78;;;2.00;;
66633;SDS011;53546;52.184;5.596;2022-11-10T03:12:05;4.53;;;2.15;;
66633;SDS011;53546;52.184;5.596;2022-11-10T03:14:30;4.43;;;1.80;;
66633;SDS011;53546;52.184;5.596;2022-11-10T03:16:56;6.97;;;2.35;;
66633;SDS011;53546;52.184;5.596;2022-11-10T03:19:21;4.43;;;1.70;;
66633;SDS011;53546;52.184;5.596;2022-11-10T03:21:46;6.38;;;1.88;;
66633;SDS011;53546;52.184;5.596;2022-11-10T03:24:12;5.80;;;2.03;;
66633;SDS011;53546;52.184;5.596;2022-11-10T03:26:37;6.88;;;2.10;;
66633;SDS011;53546;52.184;5.596;2022-11-10T03:29:03;7.50;;;2.42;;
66633;SDS011;53546;52.184;5.596;2022-11-10T03:31:28;6.65;;;2.08;;
66633;SDS011;53546;52.184;5.596;2022-11-10T03:33:53;7.82;;;2.20;;
66633;SDS011;53546;52.184;5.596;2022-11-10T03:36:19;3.67;;;1.80;;
66633;SDS011;53546;52.184;5.596;2022-11-10T03:38:44;7.95;;;2.08;;
66633;SDS011;53546;52.184;5.596;2022-11-10T03:41:09;4.88;;;1.90;;
66633;SDS011;53546;52.184;5.596;2022-11-10T03:43:35;6.32;;;2.00;;
66633;SDS011;53546;52.184;5.596;2022-11-10T03:46:00;6.78;;;2.05;;
66633;SDS011;53546;52.184;5.596;2022-11-10T03:48:25;6.15;;;2.10;;
66633;SDS011;53546;52.184;5.596;2022-11-10T03:50:51;5.57;;;2.15;;
66633;SDS011;53546;52.184;5.596;2022-11-10T03:53:16;6.60;;;1.90;;
66633;SDS011;53546;52.184;5.596;2022-11-10T03:55:41;6.47;;;2.13;;
66633;SDS011;53546;52.184;5.596;2022-11-10T03:58:07;5.65;;;1.92;;
66633;SDS011;53546;52.184;5.596;2022-11-10T04:00:32;6.43;;;2.03;;
66633;SDS011;53546;52.184;5.596;2022-11-10T04:02:57;5.00;;;1.85;;
66633;SDS011;53546;52.184;5.596;2022-11-10T04:05:23;7.18;;;1.70;;
66633;SDS011;53546;52.184;5.596;2022-11-10T04:08:11;4.57;;;1.80;;
66633;SDS011;53546;52.184;5.596;2022-11-10T04:10:57;7.45;;;2.40;;
66633;SDS011;53546;52.184;5.596;2022-11-10T04:13:22;4.72;;;1.88;;
66633;SDS011;53546;52.184;5.596;2022-11-10T04:16:06;10.60;;;2.30;;
66633;SDS011;53546;52.184;5.596;2022-11-10T04:18:32;6.68;;;2.28;;
66633;SDS011;53546;52.184;5.596;2022-11-10T04:20:58;7.25;;;2.10;;
66633;SDS011;53546;52.184;5.596;2022-11-10T04:23:28;6.00;;;2.00;;
66633;SDS011;53546;52.184;5.596;2022-11-10T04:28:53;9.02;;;1.92;;
66633;SDS011;53546;52.184;5.596;2022-11-10T04:31:20;6.38;;;2.30;;
66633;SDS011;53546;52.184;5.596;2022-11-10T04:33:47;5.10;;;1.98;;
66633;SDS011;53546;52.184;5.596;2022-11-10T04:36:14;6.30;;;1.88;;
66633;SDS011;53546;52.184;5.596;2022-11-10T04:38:41;6.07;;;1.92;;
66633;SDS011;53546;52.184;5.596;2022-11-10T04:41:07;5.70;;;1.98;;
66633;SDS011;53546;52.184;5.596;2022-11-10T04:43:32;5.55;;;2.25;;
66633;SDS011;53546;52.184;5.596;2022-11-10T04:45:58;14.90;;;2.42;;
66633;SDS011;53546;52.184;5.596;2022-11-10T04:48:25;9.57;;;2.60;;
66633;SDS011;53546;52.184;5.596;2022-11-10T04:50:51;10.40;;;1.95;;
66633;SDS011;53546;52.184;5.596;2022-11-10T04:53:16;5.15;;;1.83;;
66633;SDS011;53546;52.184;5.596;2022-11-10T04:55:42;6.55;;;2.10;;
66633;SDS011;53546;52.184;5.596;2022-11-10T04:58:09;5.75;;;1.80;;
66633;SDS011;53546;52.184;5.596;2022-11-10T05:00:35;5.55;;;1.92;;
66633;SDS011;53546;52.184;5.596;2022-11-10T05:03:02;9.05;;;2.20;;
66633;SDS011;53546;52.184;5.596;2022-11-10T05:05:29;6.28;;;2.35;;
66633;SDS011;53546;52.184;5.596;2022-11-10T05:07:54;4.70;;;1.75;;
66633;SDS011;53546;52.184;5.596;2022-11-10T05:10:21;7.47;;;2.13;;
66633;SDS011;53546;52.184;5.596;2022-11-10T05:12:46;7.18;;;2.30;;
66633;SDS011;53546;52.184;5.596;2022-11-10T05:15:11;9.32;;;2.22;;
66633;SDS011;53546;52.184;5.596;2022-11-10T05:17:37;6.93;;;2.78;;
66633;SDS011;53546;52.184;5.596;2022-11-10T05:20:03;11.93;;;2.53;;
66633;SDS011;53546;52.184;5.596;2022-11-10T05:22:29;10.25;;;2.95;;
66633;SDS011;53546;52.184;5.596;2022-11-10T05:24:54;10.43;;;2.60;;
66633;SDS011;53546;52.184;5.596;2022-11-10T05:27:20;12.90;;;3.30;;
66633;SDS011;53546;52.184;5.596;2022-11-10T05:29:45;9.30;;;3.00;;
66633;SDS011;53546;52.184;5.596;2022-11-10T05:32:10;15.27;;;3.15;;
66633;SDS011;53546;52.184;5.596;2022-11-10T05:34:36;11.25;;;3.00;;
66633;SDS011;53546;52.184;5.596;2022-11-10T05:37:01;8.85;;;2.97;;
66633;SDS011;53546;52.184;5.596;2022-11-10T05:39:26;14.77;;;3.08;;
66633;SDS011;53546;52.184;5.596;2022-11-10T05:41:52;9.60;;;2.45;;
66633;SDS011;53546;52.184;5.596;2022-11-10T05:44:17;7.60;;;2.72;;
66633;SDS011;53546;52.184;5.596;2022-11-10T05:46:42;11.80;;;2.90;;
66633;SDS011;53546;52.184;5.596;2022-11-10T05:49:08;19.45;;;4.15;;
66633;SDS011;53546;52.184;5.596;2022-11-10T05:51:33;20.95;;;4.15;;
66633;SDS011;53546;52.184;5.596;2022-11-10T05:53:59;22.75;;;3.55;;
66633;SDS011;53546;52.184;5.596;2022-11-10T05:56:24;19.20;;;3.65;;
66633;SDS011;53546;52.184;5.596;2022-11-10T05:58:49;23.77;;;4.63;;
66633;SDS011;53546;52.184;5.596;2022-11-10T06:01:15;16.30;;;4.25;;
66633;SDS011;53546;52.184;5.596;2022-11-10T06:03:40;21.35;;;4.55;;
66633;SDS011;53546;52.184;5.596;2022-11-10T06:06:05;21.48;;;5.63;;
66633;SDS011;53546;52.184;5.596;2022-11-10T06:08:31;22.23;;;4.75;;
66633;SDS011;53546;52.184;5.596;2022-11-10T06:10:56;26.02;;;5.13;;
66633;SDS011;53546;52.184;5.596;2022-11-10T06:13:22;18.70;;;4.07;;
66633;SDS011;53546;52.184;5.596;2022-11-10T06:15:47;23.15;;;4.75;;
66633;SDS011;53546;52.184;5.596;2022-11-10T06:18:13;15.20;;;3.78;;
66633;SDS011;53546;52.184;5.596;2022-11-10T06:20:38;19.70;;;3.88;;
66633;SDS011;53546;52.184;5.596;2022-11-10T06:23:04;14.73;;;3.80;;
66633;SDS011;53546;52.184;5.596;2022-11-10T06:25:39;19.42;;;4.22;;
66633;SDS011;53546;52.184;5.596;2022-11-10T06:28:05;20.90;;;4.03;;
66633;SDS011;53546;52.184;5.596;2022-11-10T06:30:32;13.27;;;3.35;;
66633;SDS011;53546;52.184;5.596;2022-11-10T06:32:58;11.63;;;2.97;;
66633;SDS011;53546;52.184;5.596;2022-11-10T06:35:24;32.38;;;3.67;;
66633;SDS011;53546;52.184;5.596;2022-11-10T06:40:29;14.15;;;3.08;;
66633;SDS011;53546;52.184;5.596;2022-11-10T06:42:55;11.43;;;3.30;;
66633;SDS011;53546;52.184;5.596;2022-11-10T06:45:21;15.95;;;4.05;;
66633;SDS011;53546;52.184;5.596;2022-11-10T06:47:47;10.88;;;2.78;;
66633;SDS011;53546;52.184;5.596;2022-11-10T06:50:12;9.75;;;3.08;;
66633;SDS011;53546;52.184;5.596;2022-11-10T06:52:38;15.05;;;3.20;;
66633;SDS011;53546;52.184;5.596;2022-11-10T06:55:03;13.93;;;2.90;;
66633;SDS011;53546;52.184;5.596;2022-11-10T06:57:29;10.02;;;2.95;;
66633;SDS011;53546;52.184;5.596;2022-11-10T07:00:02;14.10;;;3.83;;
66633;SDS011;53546;52.184;5.596;2022-11-10T07:02:28;10.57;;;2.92;;
66633;SDS011;53546;52.184;5.596;2022-11-10T07:04:53;10.75;;;2.60;;
66633;SDS011;53546;52.184;5.596;2022-11-10T07:07:19;7.25;;;2.63;;
66633;SDS011;53546;52.184;5.596;2022-11-10T07:09:44;7.00;;;2.53;;
66633;SDS011;53546;52.184;5.596;2022-11-10T07:12:09;8.27;;;2.92;;
66633;SDS011;53546;52.184;5.596;2022-11-10T07:14:35;10.00;;;2.67;;
66633;SDS011;53546;52.184;5.596;2022-11-10T07:17:00;8.93;;;2.50;;
66633;SDS011;53546;52.184;5.596;2022-11-10T07:19:26;8.30;;;2.88;;
66633;SDS011;53546;52.184;5.596;2022-11-10T07:21:51;9.32;;;2.65;;
66633;SDS011;53546;52.184;5.596;2022-11-10T07:24:16;8.63;;;2.60;;
66633;SDS011;53546;52.184;5.596;2022-11-10T07:26:42;5.32;;;2.17;;
66633;SDS011;53546;52.184;5.596;2022-11-10T07:29:07;6.90;;;2.20;;
66633;SDS011;53546;52.184;5.596;2022-11-10T07:31:32;7.90;;;2.72;;
66633;SDS011;53546;52.184;5.596;2022-11-10T07:33:58;10.75;;;2.58;;
66633;SDS011;53546;52.184;5.596;2022-11-10T07:36:23;9.82;;;2.63;;
66633;SDS011;53546;52.184;5.596;2022-11-10T07:38:52;7.47;;;2.53;;
66633;SDS011;53546;52.184;5.596;2022-11-10T07:41:18;8.98;;;2.22;;
66633;SDS011;53546;52.184;5.596;2022-11-10T07:43:43;5.70;;;2.10;;
66633;SDS011;53546;52.184;5.596;2022-11-10T07:46:09;7.13;;;2.20;;
66633;SDS011;53546;52.184;5.596;2022-11-10T07:48:34;6.38;;;2.63;;
66633;SDS011;53546;52.184;5.596;2022-11-10T07:50:59;9.13;;;2.30;;
66633;SDS011;53546;52.184;5.596;2022-11-10T07:53:25;5.05;;;2.13;;
66633;SDS011;53546;52.184;5.596;2022-11-10T07:55:50;7.60;;;2.50;;
66633;SDS011;53546;52.184;5.596;2022-11-10T07:58:16;10.52;;;2.38;;
66633;SDS011;53546;52.184;5.596;2022-11-10T08:00:42;6.93;;;2.40;;
66633;SDS011;53546;52.184;5.596;2022-11-10T08:03:09;8.50;;;1.98;;
66633;SDS011;53546;52.184;5.596;2022-11-10T08:05:36;6.60;;;2.03;;
66633;SDS011;53546;52.184;5.596;2022-11-10T08:08:02;7.13;;;1.83;;
66633;SDS011;53546;52.184;5.596;2022-11-10T08:10:28;7.55;;;1.80;;
66633;SDS011;53546;52.184;5.596;2022-11-10T08:12:55;7.10;;;2.00;;
66633;SDS011;53546;52.184;5.596;2022-11-10T08:15:21;6.30;;;2.35;;
66633;SDS011;53546;52.184;5.596;2022-11-10T08:17:47;7.68;;;2.15;;
66633;SDS011;53546;52.184;5.596;2022-11-10T08:20:13;10.18;;;2.45;;
66633;SDS011;53546;52.184;5.596;2022-11-10T08:22:39;9.00;;;2.30;;
66633;SDS011;53546;52.184;5.596;2022-11-10T08:25:04;8.10;;;2.38;;
66633;SDS011;53546;52.184;5.596;2022-11-10T08:27:30;6.85;;;1.85;;
66633;SDS011;53546;52.184;5.596;2022-11-10T08:29:55;7.00;;;2.28;;
66633;SDS011;53546;52.184;5.596;2022-11-10T08:32:20;5.22;;;1.85;;
66633;SDS011;53546;52.184;5.596;2022-11-10T08:34:46;6.72;;;2.53;;
66633;SDS011;53546;52.184;5.596;2022-11-10T08:37:11;5.75;;;2.20;;
66633;SDS011;53546;52.184;5.596;2022-11-10T08:39:37;6.43;;;2.13;;
66633;SDS011;53546;52.184;5.596;2022-11-10T08:42:02;7.47;;;2.25;;
66633;SDS011;53546;52.184;5.596;2022-11-10T08:44:27;6.40;;;2.28;;
66633;SDS011;53546;52.184;5.596;2022-11-10T08:46:53;6.70;;;2.15;;
66633;SDS011;53546;52.184;5.596;2022-11-10T08:49:18;8.13;;;2.20;;
66633;SDS011;53546;52.184;5.596;2022-11-10T08:51:43;5.10;;;2.08;;
66633;SDS011;53546;52.184;5.596;2022-11-10T08:54:09;6.70;;;2.10;;
66633;SDS011;53546;52.184;5.596;2022-11-10T08:56:34;6.85;;;2.10;;
66633;SDS011;53546;52.184;5.596;2022-11-10T08:58:59;7.55;;;2.25;;
66633;SDS011;53546;52.184;5.596;2022-11-10T09:01:25;5.05;;;2.00;;
66633;SDS011;53546;52.184;5.596;2022-11-10T09:03:50;5.57;;;2.10;;
66633;SDS011;53546;52.184;5.596;2022-11-10T09:06:16;7.28;;;2.20;;
66633;SDS011;53546;52.184;5.596;2022-11-10T09:08:41;9.75;;;2.10;;
66633;SDS011;53546;52.184;5.596;2022-11-10T09:11:06;7.30;;;1.80;;
66633;SDS011;53546;52.184;5.596;2022-11-10T09:13:32;5.50;;;1.92;;
66633;SDS011;53546;52.184;5.596;2022-11-10T09:16:02;6.05;;;2.05;;
66633;SDS011;53546;52.184;5.596;2022-11-10T09:18:28;10.43;;;2.55;;
66633;SDS011;53546;52.184;5.596;2022-11-10T09:20:54;6.13;;;2.10;;
66633;SDS011;53546;52.184;5.596;2022-11-10T09:23:19;6.50;;;1.70;;
66633;SDS011;53546;52.184;5.596;2022-11-10T09:25:50;8.88;;;2.05;;
66633;SDS011;53546;52.184;5.596;2022-11-10T09:28:17;13.50;;;2.30;;
66633;SDS011;53546;52.184;5.596;2022-11-10T09:30:50;9.05;;;2.33;;
66633;SDS011;53546;52.184;5.596;2022-11-10T09:33:16;6.20;;;1.80;;
66633;SDS011;53546;52.184;5.596;2022-11-10T09:35:41;8.35;;;2.33;;
66633;SDS011;53546;52.184;5.596;2022-11-10T09:38:07;10.90;;;2.20;;
66633;SDS011;53546;52.184;5.596;2022-11-10T09:43:19;10.80;;;2.10;;
66633;SDS011;53546;52.184;5.596;2022-11-10T09:45:48;9.07;;;2.00;;
66633;SDS011;53546;52.184;5.596;2022-11-10T09:50:48;7.50;;;2.03;;
66633;SDS011;53546;52.184;5.596;2022-11-10T09:53:20;5.65;;;2.03;;
66633;SDS011;53546;52.184;5.596;2022-11-10T09:55:48;11.52;;;2.63;;
66633;SDS011;53546;52.184;5.596;2022-11-10T09:58:15;7.40;;;1.98;;
66633;SDS011;53546;52.184;5.596;2022-11-10T10:00:41;6.95;;;1.90;;
66633;SDS011;53546;52.184;5.596;2022-11-10T10:03:16;7.47;;;2.13;;
66633;SDS011;53546;52.184;5.596;2022-11-10T10:08:26;6.00;;;1.75;;
66633;SDS011;53546;52.184;5.596;2022-11-10T10:10:59;6.47;;;2.13;;
66633;SDS011;53546;52.184;5.596;2022-11-10T10:19:15;9.38;;;2.20;;
66633;SDS011;53546;52.184;5.596;2022-11-10T10:22:01;7.45;;;2.03;;
66633;SDS011;53546;52.184;5.596;2022-11-10T10:24:50;7.68;;;1.90;;
66633;SDS011;53546;52.184;5.596;2022-11-10T10:27:19;7.68;;;2.10;;
66633;SDS011;53546;52.184;5.596;2022-11-10T10:29:47;8.88;;;2.22;;
66633;SDS011;53546;52.184;5.596;2022-11-10T10:32:16;6.72;;;2.28;;
66633;SDS011;53546;52.184;5.596;2022-11-10T10:34:42;5.50;;;2.13;;
66633;SDS011;53546;52.184;5.596;2022-11-10T10:37:22;7.60;;;1.80;;
66633;SDS011;53546;52.184;5.596;2022-11-10T10:39:54;10.05;;;2.17;;
66633;SDS011;53546;52.184;5.596;2022-11-10T10:42:27;7.80;;;1.70;;
66633;SDS011;53546;52.184;5.596;2022-11-10T10:45:42;9.48;;;2.45;;
66633;SDS011;53546;52.184;5.596;2022-11-10T10:47:51;13.55;;;1.90;;
66633;SDS011;53546;52.184;5.596;2022-11-10T10:50:25;5.63;;;1.88;;
66633;SDS011;53546;52.184;5.596;2022-11-10T10:53:06;16.83;;;2.38;;
66633;SDS011;53546;52.184;5.596;2022-11-10T10:55:33;7.35;;;2.20;;
66633;SDS011;53546;52.184;5.596;2022-11-10T10:58:03;6.85;;;1.92;;
66633;SDS011;53546;52.184;5.596;2022-11-10T11:00:30;9.20;;;2.00;;
66633;SDS011;53546;52.184;5.596;2022-11-10T11:03:00;9.50;;;1.85;;
66633;SDS011;53546;52.184;5.596;2022-11-10T11:05:27;7.13;;;1.80;;
66633;SDS011;53546;52.184;5.596;2022-11-10T11:07:57;13.48;;;2.08;;
66633;SDS011;53546;52.184;5.596;2022-11-10T11:12:53;8.32;;;2.53;;
66633;SDS011;53546;52.184;5.596;2022-11-10T11:26:01;10.00;;;2.28;;
66633;SDS011;53546;52.184;5.596;2022-11-10T11:28:46;7.97;;;2.15;;
66633;SDS011;53546;52.184;5.596;2022-11-10T11:43:09;11.07;;;2.17;;
66633;SDS011;53546;52.184;5.596;2022-11-10T11:57:22;7.70;;;2.25;;
66633;SDS011;53546;52.184;5.596;2022-11-10T11:59:58;6.35;;;2.08;;
66633;SDS011;53546;52.184;5.596;2022-11-10T12:08:12;9.63;;;2.50;;
66633;SDS011;53546;52.184;5.596;2022-11-10T12:16:17;13.38;;;2.50;;
66633;SDS011;53546;52.184;5.596;2022-11-10T12:18:50;7.82;;;2.13;;
66633;SDS011;53546;52.184;5.596;2022-11-10T12:21:42;9.77;;;2.55;;
66633;SDS011;53546;52.184;5.596;2022-11-10T12:32:13;8.88;;;2.38;;
66633;SDS011;53546;52.184;5.596;2022-11-10T12:34:42;8.50;;;2.42;;
66633;SDS011;53546;52.184;5.596;2022-11-10T12:37:16;7.50;;;2.67;;
66633;SDS011;53546;52.184;5.596;2022-11-10T12:39:52;8.32;;;2.17;;
66633;SDS011;53546;52.184;5.596;2022-11-10T12:42:21;5.72;;;1.73;;
66633;SDS011;53546;52.184;5.596;2022-11-10T12:44:55;6.85;;;1.95;;
66633;SDS011;53546;52.184;5.596;2022-11-10T12:47:30;8.35;;;2.25;;
66633;SDS011;53546;52.184;5.596;2022-11-10T12:52:51;7.82;;;2.20;;
66633;SDS011;53546;52.184;5.596;2022-11-10T12:55:20;9.40;;;2.58;;
66633;SDS011;53546;52.184;5.596;2022-11-10T12:58:10;11.27;;;2.50;;
66633;SDS011;53546;52.184;5.596;2022-11-10T13:00:59;8.85;;;2.22;;
66633;SDS011;53546;52.184;5.596;2022-11-10T13:03:31;8.63;;;1.83;;
66633;SDS011;53546;52.184;5.596;2022-11-10T13:06:02;10.93;;;2.42;;
66633;SDS011;53546;52.184;5.596;2022-11-10T13:08:33;8.13;;;2.35;;
66633;SDS011;53546;52.184;5.596;2022-11-10T13:11:05;10.18;;;2.58;;
66633;SDS011;53546;52.184;5.596;2022-11-10T13:13:43;9.95;;;2.03;;
66633;SDS011;53546;52.184;5.596;2022-11-10T13:19:08;7.55;;;2.53;;
66633;SDS011;53546;52.184;5.596;2022-11-10T13:27:12;6.85;;;2.83;;
66633;SDS011;53546;52.184;5.596;2022-11-10T13:29:57;9.10;;;2.83;;
66633;SDS011;53546;52.184;5.596;2022-11-10T13:32:27;12.38;;;3.33;;
66633;SDS011;53546;52.184;5.596;2022-11-10T13:35:43;14.18;;;2.95;;
66633;SDS011;53546;52.184;5.596;2022-11-10T13:37:57;10.50;;;3.35;;
66633;SDS011;53546;52.184;5.596;2022-11-10T13:40:25;16.20;;;3.88;;
66633;SDS011;53546;52.184;5.596;2022-11-10T13:45:28;11.77;;;3.88;;
66633;SDS011;53546;52.184;5.596;2022-11-10T13:50:34;10.70;;;4.25;;
66633;SDS011;53546;52.184;5.596;2022-11-10T13:58:42;14.30;;;4.00;;
66633;SDS011;53546;52.184;5.596;2022-11-10T14:06:24;9.52;;;3.90;;
66633;SDS011;53546;52.184;5.596;2022-11-10T14:08:55;12.00;;;3.50;;
66633;SDS011;53546;52.184;5.596;2022-11-10T14:11:47;8.57;;;3.60;;
66633;SDS011;53546;52.184;5.596;2022-11-10T14:14:23;9.48;;;3.90;;
66633;SDS011;53546;52.184;5.596;2022-11-10T14:19:23;9.40;;;3.63;;
66633;SDS011;53546;52.184;5.596;2022-11-10T14:21:54;8.63;;;3.20;;
66633;SDS011;53546;52.184;5.596;2022-11-10T14:24:27;10.25;;;3.78;;
66633;SDS011;53546;52.184;5.596;2022-11-10T14:27:04;11.00;;;3.28;;
66633;SDS011;53546;52.184;5.596;2022-11-10T14:29:35;8.32;;;3.03;;
66633;SDS011;53546;52.184;5.596;2022-11-10T14:32:10;11.53;;;3.00;;
66633;SDS011;53546;52.184;5.596;2022-11-10T14:34:43;6.43;;;2.83;;
66633;SDS011;53546;52.184;5.596;2022-11-10T14:37:13;8.15;;;3.05;;
66633;SDS011;53546;52.184;5.596;2022-11-10T14:39:41;11.32;;;2.92;;
66633;SDS011;53546;52.184;5.596;2022-11-10T14:42:11;9.10;;;2.70;;
66633;SDS011;53546;52.184;5.596;2022-11-10T14:44:38;9.60;;;3.08;;
66633;SDS011;53546;52.184;5.596;2022-11-10T14:52:38;7.82;;;2.92;;
66633;SDS011;53546;52.184;5.596;2022-11-10T14:55:05;6.80;;;2.70;;
66633;SDS011;53546;52.184;5.596;2022-11-10T14:57:32;9.70;;;2.70;;
66633;SDS011;53546;52.184;5.596;2022-11-10T14:59:58;10.95;;;2.97;;
66633;SDS011;53546;52.184;5.596;2022-11-10T15:02:23;9.73;;;2.90;;
66633;SDS011;53546;52.184;5.596;2022-11-10T15:04:49;9.07;;;2.72;;
66633;SDS011;53546;52.184;5.596;2022-11-10T15:07:15;5.40;;;2.15;;
66633;SDS011;53546;52.184;5.596;2022-11-10T15:09:41;9.55;;;3.45;;
66633;SDS011;53546;52.184;5.596;2022-11-10T15:12:28;9.48;;;2.85;;
66633;SDS011;53546;52.184;5.596;2022-11-10T15:14:57;6.43;;;2.65;;
66633;SDS011;53546;52.184;5.596;2022-11-10T15:17:43;10.07;;;2.72;;
66633;SDS011;53546;52.184;5.596;2022-11-10T15:22:59;12.02;;;2.58;;
66633;SDS011;53546;52.184;5.596;2022-11-10T15:25:38;6.90;;;2.20;;
66633;SDS011;53546;52.184;5.596;2022-11-10T15:30:35;9.60;;;2.50;;
66633;SDS011;53546;52.184;5.596;2022-11-10T15:33:07;8.48;;;2.28;;
66633;SDS011;53546;52.184;5.596;2022-11-10T15:35:33;7.60;;;2.22;;
66633;SDS011;53546;52.184;5.596;2022-11-10T15:43:06;18.27;;;2.30;;
66633;SDS011;53546;52.184;5.596;2022-11-10T15:45:38;10.50;;;2.45;;
66633;SDS011;53546;52.184;5.596;2022-11-10T15:48:07;12.02;;;2.20;;
66633;SDS011;53546;52.184;5.596;2022-11-10T15:50:36;7.63;;;2.38;;
66633;SDS011;53546;52.184;5.596;2022-11-10T15:53:03;6.10;;;1.95;;
66633;SDS011;53546;52.184;5.596;2022-11-10T15:55:29;10.45;;;2.20;;
66633;SDS011;53546;52.184;5.596;2022-11-10T15:57:58;9.32;;;2.40;;
66633;SDS011;53546;52.184;5.596;2022-11-10T16:00:23;11.90;;;2.67;;
66633;SDS011;53546;52.184;5.596;2022-11-10T16:02:49;8.82;;;2.60;;
66633;SDS011;53546;52.184;5.596;2022-11-10T16:05:14;12.38;;;2.28;;
66633;SDS011;53546;52.184;5.596;2022-11-10T16:07:40;8.68;;;2.38;;
66633;SDS011;53546;52.184;5.596;2022-11-10T16:10:05;16.00;;;2.45;;
66633;SDS011;53546;52.184;5.596;2022-11-10T16:12:31;9.73;;;2.28;;
66633;SDS011;53546;52.184;5.596;2022-11-10T16:14:56;12.82;;;2.10;;
66633;SDS011;53546;52.184;5.596;2022-11-10T16:17:22;8.93;;;2.00;;
66633;SDS011;53546;52.184;5.596;2022-11-10T16:19:47;10.63;;;2.95;;
66633;SDS011;53546;52.184;5.596;2022-11-10T16:22:13;6.70;;;2.25;;
66633;SDS011;53546;52.184;5.596;2022-11-10T16:24:38;5.60;;;1.90;;
66633;SDS011;53546;52.184;5.596;2022-11-10T16:27:05;8.27;;;1.95;;
66633;SDS011;53546;52.184;5.596;2022-11-10T16:29:31;5.60;;;1.88;;
66633;SDS011;53546;52.184;5.596;2022-11-10T16:31:57;8.75;;;1.98;;
66633;SDS011;53546;52.184;5.596;2022-11-10T16:34:23;7.78;;;2.22;;
66633;SDS011;53546;52.184;5.596;2022-11-10T16:36:48;7.28;;;1.92;;
66633;SDS011;53546;52.184;5.596;2022-11-10T16:39:14;6.07;;;2.20;;
66633;SDS011;53546;52.184;5.596;2022-11-10T16:41:41;5.40;;;1.95;;
66633;SDS011;53546;52.184;5.596;2022-11-10T16:44:10;5.50;;;1.67;;
66633;SDS011;53546;52.184;5.596;2022-11-10T16:46:37;8.00;;;2.17;;
66633;SDS011;53546;52.184;5.596;2022-11-10T16:49:03;8.25;;;1.67;;
66633;SDS011;53546;52.184;5.596;2022-11-10T16:51:30;4.45;;;1.80;;
66633;SDS011;53546;52.184;5.596;2022-11-10T16:53:58;6.55;;;1.95;;
66633;SDS011;53546;52.184;5.596;2022-11-10T16:56:23;5.88;;;1.80;;